createdAt,value
2018-07-13T00:01:37.942Z,91.20
2018-07-13T00:03:40.119Z,90.80
2018-07-13T00:05:42.185Z,90.40
2018-07-13T00:07:44.273Z,90.50
2018-07-13T00:09:46.353Z,90.30
2018-07-13T00:11:48.423Z,90.70
2018-07-13T00:14:01.677Z,90.90
2018-07-13T00:16:03.791Z,90.30
2018-07-13T00:18:05.865Z,90.60
2018-07-13T00:20:07.968Z,90.60
2018-07-13T00:22:10.062Z,90.30
2018-07-13T00:24:12.157Z,90.10
2018-07-13T00:26:14.217Z,89.90
2018-07-13T00:28:16.305Z,91.00
2018-07-13T00:30:18.369Z,91.00
2018-07-13T00:32:20.437Z,90.90
2018-07-13T00:34:22.537Z,90.70
2018-07-13T00:36:24.598Z,90.80
2018-07-13T00:38:26.664Z,90.50
2018-07-13T00:40:28.834Z,90.10
2018-07-13T00:42:30.934Z,90.40
2018-07-13T00:44:33.009Z,90.10
2018-07-13T00:46:35.097Z,90.00
2018-07-13T00:48:37.174Z,90.60
2018-07-13T00:50:39.241Z,90.50
2018-07-13T00:52:41.345Z,90.20
2018-07-13T00:54:43.417Z,90.00
2018-07-13T00:56:45.478Z,89.90
2018-07-13T00:58:47.547Z,89.60
2018-07-13T01:00:49.631Z,90.90
2018-07-13T01:02:51.788Z,90.20
2018-07-13T01:04:53.861Z,89.80
2018-07-13T01:06:55.945Z,90.20
2018-07-13T01:08:58.009Z,90.30
2018-07-13T01:11:00.067Z,89.80
2018-07-13T01:13:02.148Z,89.70
2018-07-13T01:15:04.233Z,90.70
2018-07-13T01:17:06.328Z,91.50
2018-07-13T01:19:08.654Z,90.90
2018-07-13T01:21:10.725Z,91.70
2018-07-13T01:23:12.793Z,92.60
2018-07-13T01:25:14.873Z,93.00
2018-07-13T01:27:16.929Z,92.90
2018-07-13T01:29:18.989Z,91.90
2018-07-13T01:31:21.157Z,91.30
2018-07-13T01:33:23.218Z,91.00
2018-07-13T01:35:25.360Z,90.50
2018-07-13T01:37:27.469Z,90.50
2018-07-13T01:39:30.180Z,90.50
2018-07-13T01:41:32.241Z,90.80
2018-07-13T01:43:34.336Z,91.00
2018-07-13T01:45:36.390Z,90.50
2018-07-13T01:47:38.475Z,90.50
2018-07-13T01:49:40.551Z,90.40
2018-07-13T01:51:42.637Z,90.50
2018-07-13T01:53:44.759Z,90.90
2018-07-13T01:55:46.934Z,92.20
2018-07-13T01:57:49.697Z,92.20
2018-07-13T01:59:51.837Z,91.10
2018-07-13T02:01:53.936Z,91.30
2018-07-13T02:03:56.037Z,91.30
2018-07-13T02:05:58.117Z,90.50
2018-07-13T02:08:00.181Z,91.20
2018-07-13T02:10:02.261Z,90.80
2018-07-13T02:12:04.341Z,90.70
2018-07-13T02:14:06.878Z,90.50
2018-07-13T02:16:08.966Z,90.30
2018-07-13T02:18:11.142Z,90.60
2018-07-13T02:20:13.218Z,90.30
2018-07-13T02:22:15.326Z,90.10
2018-07-13T02:24:17.405Z,90.20
2018-07-13T02:26:19.469Z,90.50
2018-07-13T02:28:21.541Z,90.40
2018-07-13T02:30:23.636Z,90.90
2018-07-13T02:32:25.689Z,91.10
2018-07-13T02:34:27.777Z,91.20
2018-07-13T02:36:29.857Z,90.80
2018-07-13T02:38:31.919Z,90.60
2018-07-13T02:40:34.017Z,91.40
2018-07-13T02:42:36.091Z,90.80
2018-07-13T02:44:38.145Z,90.70
2018-07-13T02:46:40.326Z,91.80
2018-07-13T02:48:42.434Z,92.10
2018-07-13T02:50:44.494Z,91.70
2018-07-13T02:52:46.557Z,91.50
2018-07-13T02:54:48.910Z,92.10
2018-07-13T02:56:51.004Z,91.60
2018-07-13T02:58:53.058Z,91.60
2018-07-13T03:00:55.165Z,91.00
2018-07-13T03:02:57.233Z,90.80
2018-07-13T03:04:59.298Z,90.90
2018-07-13T03:07:01.379Z,90.80
2018-07-13T03:09:05.879Z,91.10
2018-07-13T03:11:07.951Z,91.00
2018-07-13T03:13:10.069Z,91.60
2018-07-13T03:15:12.172Z,91.00
2018-07-13T03:17:14.222Z,91.00
2018-07-13T03:19:16.458Z,90.60
2018-07-13T03:21:18.517Z,90.90
2018-07-13T03:23:20.598Z,91.50
2018-07-13T03:25:22.693Z,91.30
2018-07-13T03:27:24.748Z,90.90
2018-07-13T03:29:26.800Z,90.90
2018-07-13T03:31:28.873Z,91.40
2018-07-13T03:33:30.977Z,91.60
2018-07-13T03:35:33.065Z,91.70
2018-07-13T03:37:35.121Z,90.70
2018-07-13T03:39:37.206Z,90.40
2018-07-13T03:41:39.432Z,91.60
2018-07-13T03:43:41.881Z,90.80
2018-07-13T03:45:43.953Z,91.00
2018-07-13T03:47:46.182Z,90.30
2018-07-13T03:49:48.247Z,91.30
2018-07-13T03:51:50.326Z,92.30
2018-07-13T03:53:52.562Z,92.10
2018-07-13T03:55:54.585Z,91.70
2018-07-13T04:00:20.985Z,91.70
2018-07-13T04:02:23.053Z,91.40
2018-07-13T04:04:25.157Z,90.60
2018-07-13T04:06:27.226Z,91.10
2018-07-13T04:08:29.313Z,91.10
2018-07-13T04:10:31.397Z,90.60
2018-07-13T04:12:33.495Z,90.50
2018-07-13T04:14:35.627Z,90.10
2018-07-13T04:16:37.657Z,90.30
2018-07-13T04:18:39.776Z,90.20
2018-07-13T04:20:42.436Z,90.40
2018-07-13T04:22:44.622Z,90.30
2018-07-13T04:24:46.737Z,89.90
2018-07-13T04:26:48.834Z,90.00
2018-07-13T04:28:51.030Z,89.50
2018-07-13T04:30:53.070Z,89.90
2018-07-13T04:32:55.141Z,89.60
2018-07-13T04:34:57.211Z,89.80
2018-07-13T04:36:59.325Z,89.80
2018-07-13T04:39:01.397Z,90.20
2018-07-13T04:41:03.487Z,89.40
2018-07-13T04:43:05.653Z,90.00
2018-07-13T04:45:07.738Z,90.70
2018-07-13T04:47:09.841Z,91.20
2018-07-13T04:49:11.969Z,90.50
2018-07-13T04:51:14.077Z,91.00
2018-07-13T04:53:16.170Z,90.40
2018-07-13T04:55:18.259Z,90.50
2018-07-13T04:57:20.378Z,90.00
2018-07-13T04:59:22.497Z,89.50
2018-07-13T05:03:33.437Z,89.30
2018-07-13T05:05:35.549Z,89.80
2018-07-13T05:07:37.690Z,89.70
2018-07-13T05:09:39.818Z,89.70
2018-07-13T05:11:41.906Z,89.30
2018-07-13T05:13:44.005Z,90.30
2018-07-13T05:15:46.097Z,90.60
2018-07-13T05:17:48.189Z,90.30
2018-07-13T05:19:50.268Z,90.20
2018-07-13T05:21:52.377Z,90.40
2018-07-13T05:23:54.485Z,90.60
2018-07-13T05:25:56.745Z,89.70
2018-07-13T05:27:58.862Z,89.10
2018-07-13T05:32:38.724Z,90.70
2018-07-13T05:34:40.813Z,90.10
2018-07-13T05:36:42.928Z,89.10
2018-07-13T05:38:45.034Z,88.70
2018-07-13T05:40:47.136Z,88.70
2018-07-13T05:42:49.514Z,88.90
